Time;durP1;ratioP1;P1;durP2;ratioP2;P2;SDS_P1;SDS_P2;PMS_P1;PMS_P2;Temp;Humidity;BMP_temperature;BMP_pressure;BME280_temperature;BME280_humidity;BME280_pressure;Samples;Min_cycle;Max_cycle;Signal;HPM_P1;HPM_P2
2024/04/14 00:01:02;;;;;;;2.70;2.60;;;18.20;99.40;;;;;;5432192;26;20470;-75
2024/04/14 00:03:30;;;;;;;2.50;2.40;;;18.30;98.90;;;;;;5435794;26;20475;-75
2024/04/14 00:06:01;;;;;;;3.37;3.17;;;18.30;97.00;;;;;;5433894;26;20523;-79
2024/04/14 00:08:28;;;;;;;2.90;2.60;;;18.40;98.20;;;;;;5434867;26;20574;-81
2024/04/14 00:10:59;;;;;;;2.60;2.40;;;18.50;96.80;;;;;;5433374;26;20549;-79
2024/04/14 00:13:26;;;;;;;2.47;2.37;;;18.50;95.10;;;;;;5434454;26;20563;-78
2024/04/14 00:16:04;;;;;;;3.90;2.40;;;18.60;94.90;;;;;;5423717;26;20582;-80
2024/04/14 00:18:31;;;;;;;2.67;2.37;;;18.60;94.20;;;;;;5432293;26;20508;-80
2024/04/14 00:21:03;;;;;;;2.30;2.10;;;18.60;93.70;;;;;;5435953;26;20463;-80
2024/04/14 00:23:30;;;;;;;2.53;2.20;;;18.60;93.00;;;;;;5429854;26;20941;-77
2024/04/14 00:26:00;;;;;;;2.07;1.97;;;18.60;93.50;;;;;;5435997;26;20474;-77
2024/04/14 00:28:27;;;;;;;2.50;2.40;;;18.60;93.80;;;;;;5432134;26;20460;-80
2024/04/14 00:30:57;;;;;;;11.93;2.60;;;18.70;93.50;;;;;;5425184;26;21129;-76
2024/04/14 00:33:30;;;;;;;2.23;2.10;;;18.80;93.50;;;;;;5428893;26;20474;-77
2024/04/14 00:36:00;;;;;;;2.57;2.37;;;18.70;93.00;;;;;;5435507;26;21202;-77
2024/04/14 00:38:27;;;;;;;2.23;2.13;;;18.80;92.90;;;;;;5435626;26;20979;-77
2024/04/14 00:40:57;;;;;;;2.97;2.77;;;18.80;91.90;;;;;;5431133;26;20480;-80
2024/04/14 00:43:24;;;;;;;3.53;2.40;;;18.80;99.90;;;;;;5434325;26;20472;-78
2024/04/14 00:45:54;;;;;;;2.17;1.97;;;18.80;91.80;;;;;;5440285;26;20531;-78
2024/04/14 00:48:22;;;;;;;2.10;2.00;;;18.80;91.40;;;;;;5432547;26;20459;-79
2024/04/14 00:50:55;;;;;;;2.00;1.90;;;18.80;91.30;;;;;;5428613;26;20461;-77
2024/04/14 00:53:23;;;;;;;1.93;1.83;;;18.80;91.80;;;;;;5428475;26;20531;-81
2024/04/14 00:55:53;;;;;;;2.80;1.70;;;18.90;91.40;;;;;;5432547;26;20454;-80
2024/04/14 00:58:21;;;;;;;2.30;1.90;;;18.90;91.00;;;;;;5433830;26;20471;-78
2024/04/14 01:00:51;;;;;;;2.57;1.90;;;18.80;90.90;;;;;;5430775;26;20480;-75
2024/04/14 01:03:18;;;;;;;1.87;1.77;;;18.80;90.90;;;;;;5435736;26;20476;-80
2024/04/14 01:05:48;;;;;;;2.10;1.90;;;18.90;90.80;;;;;;5432818;26;20519;-76
2024/04/14 01:08:18;;;;;;;2.10;2.00;;;18.90;90.10;;;;;;5439217;26;20472;-77
2024/04/14 01:10:48;;;;;;;1.87;1.77;;;18.80;90.40;;;;;;5428272;26;21071;-80
2024/04/14 01:13:15;;;;;;;2.00;1.90;;;18.80;90.80;;;;;;5431557;26;20608;-79
2024/04/14 01:15:45;;;;;;;2.13;2.00;;;18.80;90.50;;;;;;5428456;26;20472;-80
2024/04/14 01:18:13;;;;;;;2.90;2.17;;;18.80;90.30;;;;;;5429516;26;20573;-76
2024/04/14 01:20:43;;;;;;;3.07;1.80;;;18.80;90.40;;;;;;5426815;26;20514;-77
2024/04/14 01:23:11;;;;;;;2.03;1.93;;;18.80;90.30;;;;;;5425447;26;20860;-79
2024/04/14 01:25:43;;;;;;;2.60;1.97;;;18.80;90.10;;;;;;5435084;26;20463;-80
2024/04/14 01:28:12;;;;;;;2.30;2.20;;;18.70;89.70;;;;;;5430248;26;20518;-75
2024/04/14 01:30:41;;;;;;;2.17;1.60;;;18.60;88.60;;;;;;5429843;26;20541;-79
2024/04/14 01:33:09;;;;;;;2.00;1.90;;;18.60;89.60;;;;;;5430788;26;21089;-77
2024/04/14 01:35:39;;;;;;;2.07;1.97;;;18.60;89.40;;;;;;5430616;26;20523;-77
2024/04/14 01:38:07;;;;;;;2.00;1.90;;;18.60;88.80;;;;;;5432239;26;20478;-76
2024/04/14 01:40:53;;;;;;;2.00;1.90;;;18.60;87.90;;;;;;5431352;26;20471;-79
2024/04/14 01:43:20;;;;;;;2.17;2.00;;;18.60;97.90;;;;;;5432424;26;20471;-79
2024/04/14 01:45:50;;;;;;;1.80;1.70;;;18.50;87.60;;;;;;5430095;26;21138;-78
2024/04/14 01:48:17;;;;;;;2.40;2.20;;;18.50;87.20;;;;;;5426108;26;21088;-76
2024/04/14 01:50:47;;;;;;;2.30;2.10;;;18.50;87.00;;;;;;5430729;26;20528;-78
2024/04/14 01:53:14;;;;;;;2.57;2.47;;;18.50;88.00;;;;;;5431398;26;20471;-80
2024/04/14 01:55:45;;;;;;;2.10;2.00;;;18.40;82.80;;;;;;5435326;26;20504;-77
2024/04/14 01:58:15;;;;;;;2.30;2.20;;;18.30;83.90;;;;;;5436131;26;20576;-79
2024/04/14 02:00:45;;;;;;;2.17;2.07;;;18.40;84.70;;;;;;5438127;26;20465;-81
2024/04/14 02:03:12;;;;;;;2.20;2.10;;;18.40;84.80;;;;;;5436084;26;20484;-79
2024/04/14 02:05:42;;;;;;;3.20;1.90;;;18.30;83.00;;;;;;5435146;26;20844;-78
2024/04/14 02:08:09;;;;;;;2.23;2.03;;;18.30;82.10;;;;;;5431554;26;20462;-79
2024/04/14 02:10:41;;;;;;;2.40;2.20;;;18.30;83.30;;;;;;5432541;26;20447;-79
2024/04/14 02:13:09;;;;;;;2.30;2.20;;;18.30;81.90;;;;;;5433229;26;20488;-81
2024/04/14 02:15:43;;;;;;;2.30;1.93;;;18.20;82.00;;;;;;5435965;26;20935;-79
2024/04/14 02:18:10;;;;;;;2.80;2.07;;;18.30;82.60;;;;;;5432825;26;20475;-79
2024/04/14 02:20:40;;;;;;;2.30;2.13;;;18.20;81.40;;;;;;5434025;26;21152;-78
2024/04/14 02:23:07;;;;;;;1.90;1.80;;;18.10;94.10;;;;;;5433004;26;20459;-80
2024/04/14 02:25:37;;;;;;;3.23;1.80;;;18.10;80.40;;;;;;5429698;26;20514;-79
2024/04/14 02:28:06;;;;;;;2.00;1.90;;;18.10;80.30;;;;;;5433752;26;20471;-79
2024/04/14 02:30:36;;;;;;;3.30;2.30;;;18.10;80.40;;;;;;5435491;26;20466;-80
2024/04/14 02:33:06;;;;;;;5.37;2.20;;;18.10;79.10;;;;;;5433574;26;20524;-78
2024/04/14 02:35:35;;;;;;;2.13;1.93;;;18.10;78.60;;;;;;5433193;26;20475;-76
2024/04/14 02:38:03;;;;;;;3.13;2.40;;;18.10;80.30;;;;;;5436122;26;20480;-80
2024/04/14 02:40:33;;;;;;;2.00;1.90;;;18.10;80.10;;;;;;5431646;26;20593;-81
2024/04/14 02:43:00;;;;;;;2.60;2.40;;;18.10;80.60;;;;;;5433640;26;20535;-80
2024/04/14 02:45:31;;;;;;;2.93;2.63;;;18.10;80.00;;;;;;5435047;26;20503;-77
2024/04/14 02:47:58;;;;;;;2.37;2.27;;;18.10;79.30;;;;;;5438082;26;20531;-80
2024/04/14 02:50:30;;;;;;;2.20;2.10;;;18.10;79.00;;;;;;5433926;26;20533;-77
2024/04/14 02:52:58;;;;;;;3.27;2.17;;;18.00;78.40;;;;;;5435146;26;20519;-80
2024/04/14 02:55:28;;;;;;;2.87;2.20;;;18.00;78.40;;;;;;5433421;26;20585;-76
2024/04/14 02:57:55;;;;;;;2.40;2.30;;;18.00;77.40;;;;;;5429006;26;20541;-79
2024/04/14 03:00:25;;;;;;;2.57;2.30;;;17.90;76.10;;;;;;5435218;26;20522;-78
2024/04/14 03:02:53;;;;;;;2.30;2.20;;;17.90;75.40;;;;;;5434639;26;20528;-79
2024/04/14 03:05:22;;;;;;;3.43;1.87;;;17.90;75.90;;;;;;5435205;26;20499;-77
2024/04/14 03:07:53;;;;;;;1.90;1.80;;;17.90;76.80;;;;;;5434083;26;20812;-77
2024/04/14 03:10:23;;;;;;;2.13;1.97;;;18.00;76.90;;;;;;5430236;26;20460;-79
2024/04/14 03:12:50;;;;;;;2.00;1.90;;;17.90;77.10;;;;;;5431923;26;20470;-76
2024/04/14 03:15:20;;;;;;;2.20;2.10;;;18.00;77.70;;;;;;5430111;26;20471;-78
2024/04/14 03:17:47;;;;;;;2.43;2.23;;;17.90;76.50;;;;;;5433710;26;20527;-80
2024/04/14 03:20:17;;;;;;;2.00;1.90;;;17.90;76.30;;;;;;5434890;26;20466;-78
2024/04/14 03:22:45;;;;;;;2.20;2.00;;;17.90;75.30;;;;;;5433580;26;20480;-77
2024/04/14 03:25:17;;;;;;;2.10;2.00;;;17.90;75.70;;;;;;5433711;26;20478;-76
2024/04/14 03:27:45;;;;;;;2.50;2.30;;;17.80;73.90;;;;;;5427088;26;20827;-77
2024/04/14 03:30:15;;;;;;;1.83;1.73;;;17.80;73.90;;;;;;5435345;26;20546;-80
2024/04/14 03:32:42;;;;;;;2.00;1.70;;;17.80;71.40;;;;;;5435880;26;20482;-80
2024/04/14 03:35:12;;;;;;;2.73;2.53;;;17.80;71.30;;;;;;5430783;26;20463;-75
2024/04/14 03:37:42;;;;;;;1.90;1.80;;;17.80;72.90;;;;;;5436691;26;20534;-81
2024/04/14 03:40:13;;;;;;;3.03;2.10;;;17.70;71.40;;;;;;5433977;26;20570;-79
2024/04/14 03:42:45;;;;;;;3.83;2.30;;;17.70;72.70;;;;;;5435781;26;20525;-78
2024/04/14 03:45:19;;;;;;;2.10;2.00;;;17.80;71.20;;;;;;5438466;26;21019;-79
2024/04/14 03:47:49;;;;;;;2.07;1.80;;;17.80;72.60;;;;;;5435596;26;20564;-77
2024/04/14 03:50:16;;;;;;;2.90;2.60;;;17.80;71.10;;;;;;5433961;26;20474;-77
2024/04/14 03:52:46;;;;;;;2.07;1.97;;;17.70;71.70;;;;;;5435425;26;21247;-82
2024/04/14 03:55:17;;;;;;;1.93;1.83;;;17.70;68.80;;;;;;5436210;26;20583;-78
2024/04/14 03:57:47;;;;;;;2.27;2.10;;;17.70;70.90;;;;;;5436484;26;20512;-77
2024/04/14 04:00:17;;;;;;;2.47;2.30;;;17.70;70.10;;;;;;5433692;26;20534;-80
2024/04/14 04:02:44;;;;;;;2.33;2.13;;;17.60;69.30;;;;;;5434615;26;20517;-78
2024/04/14 04:05:14;;;;;;;2.00;1.90;;;17.60;69.20;;;;;;5434851;26;20523;-80
2024/04/14 04:07:41;;;;;;;1.87;1.77;;;17.50;67.90;;;;;;5432840;26;20543;-77
2024/04/14 04:10:11;;;;;;;2.07;1.97;;;17.50;67.70;;;;;;5432377;26;20536;-79
2024/04/14 04:12:38;;;;;;;2.60;2.00;;;17.50;68.00;;;;;;5430189;26;20486;-76
2024/04/14 04:15:11;;;;;;;3.97;1.80;;;17.50;67.10;;;;;;5431914;26;20475;-78
2024/04/14 04:17:38;;;;;;;1.97;1.87;;;17.50;68.30;;;;;;5431704;26;20482;-77
2024/04/14 04:20:09;;;;;;;2.13;2.03;;;17.50;84.60;;;;;;5428302;26;20480;-80
2024/04/14 04:22:36;;;;;;;1.90;1.63;;;17.50;67.40;;;;;;5433661;26;21170;-80
2024/04/14 04:25:07;;;;;;;2.80;2.40;;;17.50;67.10;;;;;;5432172;26;20506;-78
2024/04/14 04:27:34;;;;;;;2.03;1.90;;;17.50;66.90;;;;;;5435274;26;20515;-78
2024/04/14 04:30:04;;;;;;;2.27;2.10;;;17.40;66.70;;;;;;5431855;26;21249;-77
2024/04/14 04:32:34;;;;;;;2.03;1.83;;;17.40;66.30;;;;;;5427749;26;20541;-78
2024/04/14 04:35:07;;;;;;;1.90;1.80;;;17.40;66.30;;;;;;5432706;26;20462;-77
2024/04/14 04:37:34;;;;;;;2.37;2.23;;;17.50;66.10;;;;;;5425616;26;20486;-79
2024/04/14 04:40:04;;;;;;;2.00;1.90;;;17.40;65.00;;;;;;5433068;26;20466;-78
2024/04/14 04:42:32;;;;;;;2.93;1.77;;;17.30;65.00;;;;;;5433964;26;20455;-80
2024/04/14 04:45:02;;;;;;;2.00;1.90;;;17.30;64.50;;;;;;5430608;26;20479;-81
2024/04/14 04:47:30;;;;;;;2.33;2.13;;;17.30;63.80;;;;;;5432715;26;20529;-79
2024/04/14 04:50:02;;;;;;;2.50;2.40;;;17.30;64.30;;;;;;5431204;26;21031;-79
2024/04/14 04:52:30;;;;;;;2.00;1.90;;;17.30;64.30;;;;;;5436624;26;21104;-76
2024/04/14 04:55:00;;;;;;;2.33;1.90;;;17.20;63.20;;;;;;5434007;26;20464;-79
2024/04/14 04:57:27;;;;;;;2.87;2.43;;;17.20;61.70;;;;;;5432925;26;20890;-77
2024/04/14 04:59:57;;;;;;;2.53;2.33;;;17.20;61.80;;;;;;5437598;26;20561;-79
2024/04/14 05:02:24;;;;;;;1.80;1.70;;;17.20;63.60;;;;;;5433584;26;20549;-81
2024/04/14 05:04:55;;;;;;;2.13;1.93;;;17.20;60.80;;;;;;5429372;26;20586;-80
2024/04/14 05:07:25;;;;;;;2.10;2.00;;;17.10;60.50;;;;;;5428324;26;20475;-80
2024/04/14 05:09:55;;;;;;;1.90;1.80;;;17.00;60.10;;;;;;5428707;26;20482;-77
2024/04/14 05:12:22;;;;;;;3.37;1.83;;;17.10;62.70;;;;;;5428396;26;20471;-82
2024/04/14 05:14:53;;;;;;;3.10;1.83;;;17.20;62.80;;;;;;5432502;26;20565;-81
2024/04/14 05:17:20;;;;;;;2.50;1.90;;;17.10;63.00;;;;;;5435634;26;20464;-78
2024/04/14 05:19:50;;;;;;;3.67;2.10;;;17.10;65.70;;;;;;5433744;26;20524;-79
2024/04/14 05:22:17;;;;;;;1.97;1.87;;;17.00;62.10;;;;;;5428241;26;20519;-79
2024/04/14 05:24:49;;;;;;;2.67;2.30;;;17.10;62.50;;;;;;5431578;26;20470;-77
2024/04/14 05:27:19;;;;;;;1.80;1.70;;;17.20;63.00;;;;;;5433397;26;20495;-80
2024/04/14 05:29:49;;;;;;;1.80;1.70;;;17.20;64.70;;;;;;5427973;26;20475;-79
2024/04/14 05:32:16;;;;;;;1.90;1.80;;;17.20;64.60;;;;;;5433600;26;20459;-80
2024/04/14 05:34:46;;;;;;;2.00;1.77;;;17.20;64.70;;;;;;5435816;26;20504;-80
2024/04/14 05:37:13;;;;;;;1.93;1.83;;;17.20;65.60;;;;;;5429905;26;20470;-81
2024/04/14 05:39:43;;;;;;;1.77;1.67;;;17.20;65.20;;;;;;5431332;26;20531;-81
2024/04/14 05:42:13;;;;;;;2.20;2.00;;;17.20;65.80;;;;;;5431966;26;20476;-78
2024/04/14 05:44:49;;;;;;;2.10;1.70;;;17.30;65.90;;;;;;5427779;26;20480;-80
2024/04/14 05:47:16;;;;;;;2.10;1.90;;;17.30;67.10;;;;;;5433329;26;21044;-80
2024/04/14 05:49:46;;;;;;;1.70;1.60;;;17.40;69.10;;;;;;5432380;26;20464;-78
2024/04/14 05:52:13;;;;;;;2.33;2.00;;;17.40;69.40;;;;;;5433218;26;20516;-81
2024/04/14 05:54:43;;;;;;;1.73;1.63;;;17.40;69.00;;;;;;5432137;26;20455;-78
2024/04/14 05:57:14;;;;;;;3.20;1.93;;;17.50;70.10;;;;;;5425450;26;20470;-78
2024/04/14 05:59:43;;;;;;;2.07;1.97;;;17.50;70.00;;;;;;5430082;26;20519;-77
2024/04/14 06:02:11;;;;;;;1.77;1.67;;;17.60;72.50;;;;;;5432194;26;20455;-79
2024/04/14 06:04:41;;;;;;;1.90;1.80;;;17.60;71.70;;;;;;5435262;26;20561;-78
2024/04/14 06:07:08;;;;;;;3.35;1.88;;;17.70;72.90;;;;;;5433316;26;20362;-75
2024/04/14 06:09:38;;;;;;;3.23;2.17;;;17.70;73.80;;;;;;5426885;26;20238;-80
2024/04/14 06:12:06;;;;;;;2.43;2.17;;;17.90;76.10;;;;;;5432359;26;20474;-78
2024/04/14 06:14:38;;;;;;;3.00;2.03;;;18.00;79.00;;;;;;5427559;26;20607;-77
2024/04/14 06:17:06;;;;;;;2.83;1.80;;;18.10;79.80;;;;;;5429603;26;20478;-82
2024/04/14 06:19:36;;;;;;;1.77;1.67;;;18.30;81.80;;;;;;5431563;26;20471;-77
2024/04/14 06:22:03;;;;;;;1.93;1.73;;;18.30;82.20;;;;;;5427469;26;21677;-77
2024/04/14 06:24:34;;;;;;;2.80;1.70;;;18.30;82.30;;;;;;5431280;26;20576;-77
2024/04/14 06:27:01;;;;;;;2.50;2.00;;;18.30;83.70;;;;;;5432013;26;21015;-79
2024/04/14 06:29:31;;;;;;;2.43;2.23;;;18.30;83.90;;;;;;5429947;26;20467;-77
2024/04/14 06:32:04;;;;;;;2.60;1.73;;;18.20;82.40;;;;;;5432174;26;20452;-77
2024/04/14 06:34:34;;;;;;;2.23;2.00;;;18.20;81.60;;;;;;5426640;26;20518;-78
2024/04/14 06:37:02;;;;;;;2.73;1.70;;;18.20;82.50;;;;;;5433181;26;20877;-76
2024/04/14 06:39:32;;;;;;;1.60;1.50;;;18.30;87.00;;;;;;5431657;26;20460;-77
2024/04/14 06:41:59;;;;;;;2.43;2.23;;;18.40;89.30;;;;;;5431203;26;20580;-74
2024/04/14 06:44:29;;;;;;;2.17;2.07;;;18.60;90.40;;;;;;5434086;26;20475;-77
2024/04/14 06:46:56;;;;;;;1.70;1.60;;;18.70;92.00;;;;;;5434674;26;20492;-76
2024/04/14 06:49:29;;;;;;;2.30;2.20;;;18.80;93.70;;;;;;5434987;26;20522;-78
2024/04/14 06:51:57;;;;;;;3.20;3.00;;;19.00;94.30;;;;;;5431635;26;20590;-77
2024/04/14 06:54:27;;;;;;;2.10;2.00;;;19.20;99.90;;;;;;5429945;26;21166;-80
2024/04/14 06:56:54;;;;;;;1.97;1.70;;;19.20;96.00;;;;;;5431612;26;20459;-77
2024/04/14 06:59:24;;;;;;;1.60;1.50;;;19.40;96.70;;;;;;5434929;26;20467;-77
2024/04/14 07:01:51;;;;;;;4.47;2.80;;;19.50;95.90;;;;;;5430321;26;20456;-78
2024/04/14 07:04:21;;;;;;;2.03;1.93;;;19.60;97.10;;;;;;5435578;26;20900;-77
2024/04/14 07:06:51;;;;;;;1.90;1.80;;;19.60;96.40;;;;;;5435398;26;20471;-78
2024/04/14 07:09:21;;;;;;;1.97;1.87;;;19.80;97.30;;;;;;5435167;26;21345;-76
2024/04/14 07:11:49;;;;;;;2.17;1.60;;;19.80;95.90;;;;;;5432558;26;20527;-77
2024/04/14 07:14:19;;;;;;;1.73;1.60;;;19.80;96.50;;;;;;5428654;26;20472;-78
2024/04/14 07:16:46;;;;;;;2.50;1.70;;;19.90;96.10;;;;;;5432716;26;20460;-78
2024/04/14 07:19:16;;;;;;;3.00;2.53;;;19.80;95.80;;;;;;5426640;26;20480;-80
2024/04/14 07:21:44;;;;;;;1.90;1.80;;;19.80;96.30;;;;;;5430871;26;21028;-78
2024/04/14 07:24:16;;;;;;;2.60;1.90;;;19.80;96.10;;;;;;5431899;26;20386;-78
2024/04/14 07:26:43;;;;;;;2.23;1.77;;;19.80;96.80;;;;;;5433587;26;20327;-76
2024/04/14 07:29:13;;;;;;;1.90;1.80;;;19.70;95.80;;;;;;5436898;26;20531;-77
2024/04/14 07:31:40;;;;;;;2.07;1.90;;;19.80;96.00;;;;;;5432544;26;20455;-75
2024/04/14 07:34:10;;;;;;;2.07;1.97;;;19.80;96.80;;;;;;5437219;26;20525;-77
2024/04/14 07:36:38;;;;;;;1.50;1.40;;;19.90;96.90;;;;;;5442956;26;20954;-78
2024/04/14 07:39:08;;;;;;;2.10;1.90;;;19.90;97.60;;;;;;5430041;26;20523;-76
2024/04/14 07:41:38;;;;;;;1.70;1.60;;;20.00;98.70;;;;;;5436411;26;20476;-76
2024/04/14 07:44:08;;;;;;;1.87;1.77;;;20.10;99.90;;;;;;5429188;26;20467;-82
2024/04/14 07:46:35;;;;;;;2.60;1.77;;;20.10;99.10;;;;;;5433041;26;21019;-81
2024/04/14 07:49:05;;;;;;;1.80;1.70;;;20.10;99.70;;;;;;5445379;26;20464;-81
2024/04/14 07:51:33;;;;;;;1.87;1.77;;;20.10;99.90;;;;;;5431458;26;20525;-81
2024/04/14 07:54:03;;;;;;;2.13;2.03;;;20.20;99.90;;;;;;5440908;26;20582;-79
2024/04/14 07:56:30;;;;;;;1.63;1.40;;;20.20;99.90;;;;;;5433119;26;21075;-81
2024/04/14 07:59:04;;;;;;;5.03;2.20;;;20.30;99.90;;;;;;5435255;26;20480;-80
2024/04/14 08:01:31;;;;;;;2.13;2.03;;;20.40;99.90;;;;;;5428530;26;20467;-81
2024/04/14 08:04:02;;;;;;;2.13;2.03;;;20.50;99.90;;;;;;5431793;26;20490;-81
2024/04/14 08:06:29;;;;;;;1.80;1.70;;;20.50;99.90;;;;;;5431119;26;20467;-81
2024/04/14 08:08:59;;;;;;;2.77;2.00;;;20.50;99.90;;;;;;5436788;26;20476;-82
2024/04/14 08:11:29;;;;;;;2.00;1.90;;;20.40;99.90;;;;;;5432677;26;20535;-80
2024/04/14 08:13:57;;;;;;;3.43;1.83;;;20.50;99.90;;;;;;5431174;26;20480;-83
2024/04/14 08:16:29;;;;;;;2.53;2.33;;;20.60;99.90;;;;;;5434606;26;20538;-82
2024/04/14 08:18:56;;;;;;;4.50;1.90;;;20.60;99.90;;;;;;5435038;26;20562;-81
2024/04/14 08:21:27;;;;;;;2.10;1.93;;;20.70;99.90;;;;;;5443343;26;20469;-78
2024/04/14 08:23:54;;;;;;;2.13;2.03;;;20.80;99.90;;;;;;5443153;26;20474;-82
2024/04/14 08:26:24;;;;;;;2.00;1.80;;;20.90;99.90;;;;;;5433415;26;20516;-80
2024/04/14 08:28:51;;;;;;;3.23;2.33;;;20.90;99.90;;;;;;5432433;26;20459;-80
2024/04/14 08:31:21;;;;;;;1.90;1.80;;;21.00;99.90;;;;;;5432370;26;20515;-80
2024/04/14 08:33:51;;;;;;;2.13;1.93;;;21.00;99.90;;;;;;5429998;26;20559;-77
2024/04/14 08:36:22;;;;;;;2.57;1.80;;;21.00;99.90;;;;;;5431999;26;20771;-81
2024/04/14 08:38:49;;;;;;;2.53;1.80;;;21.00;99.90;;;;;;5433646;26;20469;-79
2024/04/14 08:41:20;;;;;;;1.90;1.80;;;21.00;99.90;;;;;;5427621;26;20459;-79
2024/04/14 08:43:47;;;;;;;2.10;2.00;;;21.10;99.90;;;;;;5438669;26;20532;-80
2024/04/14 08:46:19;;;;;;;1.90;1.80;;;21.20;99.90;;;;;;5428783;26;20522;-81
2024/04/14 08:48:47;;;;;;;2.27;1.90;;;21.20;99.90;;;;;;5438140;26;20535;-79
2024/04/14 08:51:24;;;;;;;1.90;1.80;;;21.20;99.90;;;;;;5436778;26;21114;-79
2024/04/14 08:53:55;;;;;;;1.70;1.60;;;21.30;99.90;;;;;;5429168;26;20594;-80
2024/04/14 08:56:29;;;;;;;1.80;1.70;;;21.30;99.90;;;;;;5431909;26;20577;-80
2024/04/14 08:59:01;;;;;;;3.00;2.70;;;21.30;99.90;;;;;;5427365;26;20925;-79
2024/04/14 09:01:31;;;;;;;1.83;1.73;;;21.30;99.90;;;;;;5430396;26;20932;-81
2024/04/14 09:04:01;;;;;;;2.00;1.90;;;21.40;99.90;;;;;;5433629;26;20472;-79
2024/04/14 09:06:35;;;;;;;2.10;1.83;;;21.40;99.90;;;;;;5432004;26;20527;-80
2024/04/14 09:09:02;;;;;;;3.93;2.60;;;21.50;99.90;;;;;;5434948;26;20447;-80
2024/04/14 09:11:33;;;;;;;2.60;2.40;;;21.50;99.90;;;;;;5433727;26;21068;-79
2024/04/14 09:14:00;;;;;;;2.63;2.40;;;21.50;99.90;;;;;;5430210;26;20520;-79
2024/04/14 09:16:30;;;;;;;2.50;2.30;;;21.60;99.90;;;;;;5427842;26;20452;-78
2024/04/14 09:18:58;;;;;;;2.40;2.20;;;21.60;99.90;;;;;;5432895;26;20902;-79
2024/04/14 09:21:28;;;;;;;3.10;2.27;;;21.70;99.90;;;;;;5431410;26;20523;-77
2024/04/14 09:23:58;;;;;;;1.97;1.87;;;21.60;99.90;;;;;;5429308;26;20488;-79
2024/04/14 09:26:29;;;;;;;2.37;2.17;;;21.60;99.90;;;;;;5428632;26;20512;-79
2024/04/14 09:29:03;;;;;;;3.20;1.77;;;21.70;99.90;;;;;;5430309;26;20466;-76
2024/04/14 09:31:33;;;;;;;2.07;1.97;;;21.70;99.90;;;;;;5430884;26;20468;-78
2024/04/14 09:34:02;;;;;;;2.37;2.17;;;21.70;99.90;;;;;;5431180;26;21023;-79
2024/04/14 09:36:34;;;;;;;2.47;2.27;;;21.80;99.90;;;;;;5424221;26;20473;-78
2024/04/14 09:39:06;;;;;;;2.37;2.20;;;21.90;99.90;;;;;;5432495;26;21400;-80
2024/04/14 09:41:38;;;;;;;2.80;2.37;;;21.90;99.90;;;;;;5439640;26;20528;-78
2024/04/14 09:44:08;;;;;;;2.20;2.00;;;21.90;99.90;;;;;;5436352;26;20477;-78
2024/04/14 09:46:39;;;;;;;1.93;1.83;;;22.00;99.90;;;;;;5438092;26;20475;-78
2024/04/14 09:49:07;;;;;;;2.13;1.93;;;22.00;99.90;;;;;;5423356;26;20531;-77
2024/04/14 09:51:38;;;;;;;2.13;2.03;;;22.10;99.90;;;;;;5423341;26;20788;-79
2024/04/14 09:54:10;;;;;;;2.37;2.17;;;22.10;99.90;;;;;;5432925;26;20468;-76
2024/04/14 09:56:40;;;;;;;2.10;2.00;;;22.10;99.90;;;;;;5429857;26;20532;-75
2024/04/14 09:59:08;;;;;;;2.17;2.00;;;22.10;99.90;;;;;;5426358;26;20921;-74
2024/04/14 10:01:42;;;;;;;1.90;1.80;;;22.20;99.90;;;;;;5425096;26;20474;-73
2024/04/14 10:04:10;;;;;;;2.30;2.03;;;22.30;99.90;;;;;;5427040;26;20820;-76
2024/04/14 10:06:43;;;;;;;2.10;1.90;;;22.40;99.90;;;;;;5424816;26;20457;-74
2024/04/14 10:09:13;;;;;;;2.20;2.07;;;22.40;99.90;;;;;;5420269;26;20467;-76
2024/04/14 10:11:45;;;;;;;1.93;1.80;;;22.40;99.90;;;;;;5426511;26;21124;-78
2024/04/14 10:14:13;;;;;;;4.60;2.83;;;22.40;99.90;;;;;;5423343;26;20470;-77
2024/04/14 10:16:53;;;;;;;2.20;2.00;;;22.50;99.90;;;;;;5435756;26;20483;-77
2024/04/14 10:19:21;;;;;;;2.30;2.20;;;22.50;99.90;;;;;;5428795;26;20864;-74
2024/04/14 10:22:01;;;;;;;1.80;1.70;;;22.50;99.90;;;;;;5421734;26;20517;-74
2024/04/14 10:24:32;;;;;;;2.17;2.00;;;22.70;99.90;;;;;;5430180;26;20584;-74
2024/04/14 10:27:09;;;;;;;2.40;2.20;;;22.70;99.90;;;;;;5430934;26;20455;-73
2024/04/14 10:29:36;;;;;;;1.87;1.70;;;22.70;99.90;;;;;;5430799;26;21401;-76
2024/04/14 10:32:10;;;;;;;2.00;1.90;;;22.80;99.90;;;;;;5430258;26;20480;-73
2024/04/14 10:34:37;;;;;;;2.23;1.90;;;22.80;99.90;;;;;;5427784;26;20470;-75
2024/04/14 10:37:07;;;;;;;2.30;2.10;;;22.90;99.90;;;;;;5430170;26;21046;-76
2024/04/14 10:39:40;;;;;;;2.70;2.27;;;23.00;99.90;;;;;;5425064;26;20474;-69
2024/04/14 10:42:11;;;;;;;2.70;2.10;;;23.00;99.90;;;;;;5432807;26;20454;-71
2024/04/14 10:44:42;;;;;;;4.53;2.20;;;23.00;99.90;;;;;;5428813;26;20522;-73
2024/04/14 10:47:18;;;;;;;3.40;2.20;;;22.90;99.90;;;;;;5429081;26;20464;-69
2024/04/14 10:49:47;;;;;;;2.00;1.80;;;22.90;99.90;;;;;;5426649;26;20528;-70
2024/04/14 10:52:18;;;;;;;2.10;2.00;;;22.90;99.90;;;;;;5423777;26;20475;-71
2024/04/14 10:54:48;;;;;;;1.83;1.73;;;22.90;99.90;;;;;;5427230;26;20529;-76
2024/04/14 10:57:18;;;;;;;2.00;1.80;;;23.00;99.90;;;;;;5430000;26;20800;-79
2024/04/14 10:59:45;;;;;;;1.70;1.60;;;23.00;99.90;;;;;;5432997;26;21052;-77
2024/04/14 11:02:16;;;;;;;1.80;1.70;;;23.00;99.90;;;;;;5428349;26;20463;-79
2024/04/14 11:04:43;;;;;;;2.00;1.90;;;23.10;99.90;;;;;;5429795;26;20470;-77
2024/04/14 11:07:14;;;;;;;2.60;2.10;;;23.10;99.90;;;;;;5434215;26;20508;-78
2024/04/14 11:09:41;;;;;;;1.97;1.87;;;23.10;99.90;;;;;;5435339;26;20588;-77
2024/04/14 11:12:14;;;;;;;2.07;1.93;;;23.10;99.90;;;;;;5430316;26;20474;-76
2024/04/14 11:14:44;;;;;;;1.80;1.70;;;23.20;99.90;;;;;;5429954;26;20486;-79
2024/04/14 11:17:15;;;;;;;2.33;2.00;;;23.20;99.90;;;;;;5433030;26;20456;-78
2024/04/14 11:19:42;;;;;;;2.27;2.07;;;23.30;99.90;;;;;;5433910;26;21194;-78
2024/04/14 11:22:18;;;;;;;1.90;1.80;;;23.30;99.90;;;;;;5424419;26;20528;-78
2024/04/14 11:24:49;;;;;;;4.33;2.13;;;23.30;99.90;;;;;;5430822;26;20471;-76
2024/04/14 11:27:22;;;;;;;2.10;2.00;;;23.30;99.90;;;;;;5425668;26;20495;-80
2024/04/14 11:29:50;;;;;;;2.17;1.90;;;23.40;99.90;;;;;;5426197;26;20562;-78
2024/04/14 11:32:35;;;;;;;3.33;2.33;;;23.40;99.90;;;;;;5428969;26;20507;-77
2024/04/14 11:35:05;;;;;;;2.30;2.10;;;23.40;99.90;;;;;;5436433;26;20516;-76
2024/04/14 11:37:43;;;;;;;1.83;1.73;;;23.40;99.90;;;;;;5434743;26;20480;-77
2024/04/14 11:40:13;;;;;;;3.23;1.73;;;23.40;99.90;;;;;;5431558;26;20530;-75
2024/04/14 11:42:46;;;;;;;2.20;2.00;;;23.50;99.90;;;;;;5427649;26;20530;-80
2024/04/14 11:45:14;;;;;;;2.30;1.73;;;23.60;99.90;;;;;;5430256;26;21061;-76
2024/04/14 11:47:44;;;;;;;2.27;2.07;;;23.60;99.90;;;;;;5420671;26;20464;-79
2024/04/14 11:50:11;;;;;;;1.83;1.73;;;23.60;99.90;;;;;;5432231;26;20523;-78
2024/04/14 11:52:41;;;;;;;1.90;1.80;;;23.60;99.90;;;;;;5431145;26;20467;-78
2024/04/14 11:55:09;;;;;;;1.97;1.87;;;23.70;99.90;;;;;;5431113;26;20511;-75
2024/04/14 11:57:39;;;;;;;1.90;1.80;;;23.70;99.90;;;;;;5430501;26;20901;-80
2024/04/14 12:00:10;;;;;;;2.85;2.00;;;23.70;99.90;;;;;;5423481;26;20458;-79
2024/04/14 12:02:40;;;;;;;1.93;1.50;;;23.60;99.90;;;;;;5432741;26;20311;-78
2024/04/14 12:05:07;;;;;;;1.70;1.60;;;23.70;99.90;;;;;;5426299;26;20596;-75
2024/04/14 12:07:38;;;;;;;1.60;1.50;;;23.80;99.90;;;;;;5426765;26;20482;-75
2024/04/14 12:10:06;;;;;;;1.70;1.60;;;23.70;99.90;;;;;;5430519;26;20474;-77
2024/04/14 12:12:36;;;;;;;2.00;1.90;;;23.70;99.90;;;;;;5430503;26;21026;-76
2024/04/14 12:15:04;;;;;;;1.97;1.80;;;23.70;99.90;;;;;;5430507;26;20470;-76
2024/04/14 12:17:37;;;;;;;1.67;1.57;;;23.70;99.90;;;;;;5430990;26;20836;-78
2024/04/14 12:20:05;;;;;;;1.70;1.60;;;23.70;99.90;;;;;;5428743;26;20452;-77
2024/04/14 12:22:35;;;;;;;1.70;1.60;;;23.80;99.90;;;;;;5426351;26;20547;-78
2024/04/14 12:25:03;;;;;;;2.53;1.90;;;23.80;99.90;;;;;;5426014;26;20470;-79
2024/04/14 12:27:34;;;;;;;2.60;2.00;;;23.90;99.90;;;;;;5432180;26;20466;-79
2024/04/14 12:30:02;;;;;;;1.50;1.40;;;23.90;99.90;;;;;;5432975;26;20456;-76
2024/04/14 12:32:31;;;;;;;2.20;1.83;;;24.00;99.90;;;;;;5433259;26;20467;-77
2024/04/14 12:35:01;;;;;;;2.03;1.53;;;24.00;99.90;;;;;;5431410;26;20586;-78
2024/04/14 12:37:31;;;;;;;1.70;1.60;;;24.00;99.90;;;;;;5430168;26;20462;-78
2024/04/14 12:39:59;;;;;;;2.20;1.57;;;24.10;99.90;;;;;;5429669;26;20567;-78
2024/04/14 12:42:29;;;;;;;1.93;1.83;;;24.10;99.90;;;;;;5432182;26;20463;-75
2024/04/14 12:44:56;;;;;;;2.00;1.90;;;24.00;99.90;;;;;;5432803;26;21076;-78
2024/04/14 12:47:26;;;;;;;1.90;1.80;;;24.00;99.90;;;;;;5434412;26;21076;-77
2024/04/14 12:49:55;;;;;;;1.93;1.73;;;24.10;99.90;;;;;;5432355;26;20467;-77
2024/04/14 12:52:28;;;;;;;1.60;1.50;;;24.10;99.90;;;;;;5429331;26;20472;-75
2024/04/14 12:54:55;;;;;;;1.70;1.60;;;24.10;99.90;;;;;;5430741;26;20549;-79
2024/04/14 12:57:25;;;;;;;3.07;1.70;;;24.20;99.90;;;;;;5429495;26;20531;-78
2024/04/14 12:59:54;;;;;;;1.60;1.50;;;24.10;99.90;;;;;;5430462;26;20467;-76